createdAt,value
2022-08-19T00:02:11.699Z,8.70
2022-08-19T00:05:15.402Z,8.32
2022-08-19T00:08:18.954Z,10.20
2022-08-19T00:11:25.777Z,6.93
2022-08-19T00:14:30.173Z,7.78
2022-08-19T00:17:31.657Z,6.80
2022-08-19T00:20:33.123Z,8.80
2022-08-19T00:23:35.821Z,8.00
2022-08-19T00:26:38.053Z,9.05
2022-08-19T00:29:39.506Z,7.18
2022-08-19T00:32:41.219Z,7.03
2022-08-19T00:35:42.871Z,7.75
2022-08-19T00:38:44.855Z,10.63
2022-08-19T00:41:48.440Z,9.13
2022-08-19T00:44:51.412Z,10.25
2022-08-19T00:47:53.303Z,7.45
2022-08-19T00:50:56.427Z,9.82
2022-08-19T00:53:59.618Z,8.23
2022-08-19T00:57:04.423Z,9.35
2022-08-19T01:00:14.345Z,9.18
2022-08-19T01:03:19.661Z,9.88
2022-08-19T01:06:21.582Z,9.13
2022-08-19T01:09:23.110Z,9.70
2022-08-19T01:12:24.770Z,9.40
2022-08-19T01:15:33.289Z,7.95
2022-08-19T01:18:39.776Z,8.70
2022-08-19T01:21:56.502Z,7.78
2022-08-19T01:24:58.180Z,9.30
2022-08-19T01:28:06.419Z,9.05
2022-08-19T01:31:27.238Z,9.57
2022-08-19T01:34:29.271Z,9.65
2022-08-19T01:37:42.056Z,9.02
2022-08-19T01:40:43.635Z,12.13
2022-08-19T01:44:03.165Z,8.80
2022-08-19T01:47:08.985Z,10.93
2022-08-19T01:50:11.936Z,10.57
2022-08-19T01:53:13.410Z,9.65
2022-08-19T01:56:15.379Z,9.10
2022-08-19T01:59:21.393Z,10.77
2022-08-19T02:02:22.804Z,8.05
2022-08-19T02:05:24.677Z,9.80
2022-08-19T02:08:28.128Z,11.95
2022-08-19T02:11:34.291Z,10.98
2022-08-19T02:14:37.145Z,9.38
2022-08-19T02:17:40.095Z,8.98
2022-08-19T02:20:43.661Z,9.88
2022-08-19T02:23:46.239Z,10.02
2022-08-19T02:26:47.727Z,10.50
2022-08-19T02:29:50.551Z,10.98
2022-08-19T02:32:52.765Z,9.55
2022-08-19T02:35:54.202Z,9.50
2022-08-19T02:38:55.949Z,8.52
2022-08-19T02:42:00.641Z,8.05
2022-08-19T02:45:02.097Z,8.30
2022-08-19T02:48:05.744Z,8.27
2022-08-19T02:51:28.771Z,9.02
2022-08-19T02:54:30.298Z,8.52
2022-08-19T02:57:32.717Z,8.95
2022-08-19T03:00:34.239Z,8.30
2022-08-19T03:03:41.077Z,9.50
2022-08-19T03:06:46.199Z,9.05
2022-08-19T03:09:47.647Z,9.90
2022-08-19T03:13:07.221Z,8.52
2022-08-19T03:16:08.614Z,8.75
2022-08-19T03:19:10.166Z,9.13
2022-08-19T03:22:11.736Z,8.38
2022-08-19T03:25:13.366Z,8.13
2022-08-19T03:28:15.833Z,8.80
2022-08-19T03:31:43.517Z,10.65
2022-08-19T03:34:41.719Z,8.82
2022-08-19T03:37:43.190Z,8.95
2022-08-19T03:40:44.719Z,8.77
2022-08-19T03:43:50.610Z,9.60
2022-08-19T03:46:59.629Z,11.15
2022-08-19T03:50:01.207Z,9.45
2022-08-19T03:53:02.697Z,9.23
2022-08-19T03:56:04.319Z,10.13
2022-08-19T03:59:10.216Z,10.02
2022-08-19T04:02:13.024Z,11.77
2022-08-19T04:05:15.842Z,8.68
2022-08-19T04:08:21.007Z,9.13
2022-08-19T04:11:43.842Z,13.73
2022-08-19T04:14:46.598Z,7.63
2022-08-19T04:17:47.992Z,10.15
2022-08-19T04:20:50.646Z,8.07
2022-08-19T04:23:52.488Z,9.05
2022-08-19T04:26:57.423Z,8.70
2022-08-19T04:29:58.857Z,8.75
2022-08-19T04:33:00.287Z,8.50
2022-08-19T04:36:01.745Z,9.52
2022-08-19T04:39:09.438Z,8.40
2022-08-19T04:42:30.589Z,8.70
2022-08-19T04:45:39.552Z,8.23
2022-08-19T04:48:49.473Z,9.07
2022-08-19T04:51:54.877Z,11.18
2022-08-19T04:54:56.393Z,7.45
2022-08-19T04:57:57.799Z,9.02
2022-08-19T05:01:01.007Z,10.90
2022-08-19T05:04:05.722Z,7.60
2022-08-19T05:07:09.224Z,10.52
2022-08-19T05:10:11.215Z,8.05
2022-08-19T05:13:12.757Z,7.75
2022-08-19T05:16:16.135Z,8.52
2022-08-19T05:19:36.247Z,10.23
2022-08-19T05:22:38.210Z,7.45
2022-08-19T05:25:41.106Z,10.27
2022-08-19T05:28:43.135Z,7.90
2022-08-19T05:31:45.843Z,12.68
2022-08-19T05:34:47.363Z,11.90
2022-08-19T05:37:48.856Z,10.57
2022-08-19T05:40:56.431Z,8.15
2022-08-19T05:43:59.237Z,9.73
2022-08-19T05:47:03.068Z,10.10
2022-08-19T05:50:05.336Z,8.85
2022-08-19T05:53:07.126Z,11.05
2022-08-19T05:56:11.722Z,8.70
2022-08-19T05:59:13.224Z,9.07
2022-08-19T06:02:15.331Z,9.52
2022-08-19T06:05:16.875Z,10.55
2022-08-19T06:08:19.273Z,9.50
2022-08-19T06:11:36.485Z,9.80
2022-08-19T06:14:41.881Z,10.82
2022-08-19T06:17:45.391Z,8.93
2022-08-19T06:20:55.982Z,8.45
2022-08-19T06:23:58.400Z,9.90
2022-08-19T06:27:01.646Z,11.02
2022-08-19T06:30:05.447Z,8.95
2022-08-19T06:33:06.885Z,8.55
2022-08-19T06:36:09.411Z,7.88
2022-08-19T06:39:14.814Z,7.80
2022-08-19T06:42:19.403Z,8.80
2022-08-19T06:45:25.144Z,9.43
2022-08-19T06:48:44.991Z,8.77
2022-08-19T06:51:48.658Z,9.15
2022-08-19T06:54:56.493Z,7.85
2022-08-19T06:57:58.392Z,8.95
2022-08-19T07:01:07.100Z,7.82
2022-08-19T07:04:12.081Z,9.65
2022-08-19T07:07:20.000Z,8.35
2022-08-19T07:10:22.641Z,9.80
2022-08-19T07:13:27.548Z,8.90
2022-08-19T07:16:30.114Z,9.27
2022-08-19T07:19:32.665Z,8.27
2022-08-19T07:22:35.471Z,8.18
2022-08-19T07:25:38.302Z,9.70
2022-08-19T07:28:40.314Z,7.03
2022-08-19T07:31:53.690Z,11.18
2022-08-19T07:34:57.113Z,7.10
2022-08-19T07:38:00.151Z,8.20
2022-08-19T07:41:02.125Z,8.43
2022-08-19T07:44:06.269Z,7.25
2022-08-19T07:47:07.923Z,7.53
2022-08-19T07:50:29.689Z,6.32
2022-08-19T07:53:36.702Z,7.78
2022-08-19T07:56:41.065Z,5.88
2022-08-19T07:59:42.610Z,8.90
2022-08-19T08:02:44.131Z,6.57
2022-08-19T08:06:04.998Z,7.18
2022-08-19T08:09:13.365Z,6.80
2022-08-19T08:12:35.180Z,6.10
2022-08-19T08:15:42.560Z,6.18
2022-08-19T08:18:50.654Z,7.30
2022-08-19T08:21:58.405Z,8.85
2022-08-19T08:25:05.024Z,5.68
2022-08-19T08:28:11.362Z,6.22
2022-08-19T08:31:22.492Z,4.93
2022-08-19T08:34:24.143Z,6.40
2022-08-19T08:37:25.611Z,6.30
2022-08-19T08:41:07.229Z,5.65
2022-08-19T08:44:20.132Z,5.50
2022-08-19T08:47:25.796Z,6.07
2022-08-19T08:50:39.113Z,6.20
2022-08-19T08:53:43.270Z,5.13
2022-08-19T08:56:48.781Z,5.57
2022-08-19T08:59:56.971Z,4.38
2022-08-19T09:03:02.699Z,5.43
2022-08-19T09:06:32.100Z,5.55
2022-08-19T09:09:40.484Z,4.95
2022-08-19T09:12:46.650Z,4.55
2022-08-19T09:15:55.991Z,5.93
2022-08-19T09:19:03.611Z,4.30
2022-08-19T09:22:08.595Z,5.03
2022-08-19T09:28:27.032Z,4.38
2022-08-19T09:31:31.043Z,5.50
2022-08-19T09:34:37.761Z,5.95
2022-08-19T09:37:40.409Z,4.07
2022-08-19T09:40:42.009Z,4.70
2022-08-19T09:43:48.019Z,3.50
2022-08-19T09:46:50.175Z,7.35
2022-08-19T09:49:51.689Z,2.92
2022-08-19T09:52:57.772Z,2.78
2022-08-19T09:55:59.342Z,3.63
2022-08-19T09:59:02.629Z,3.85
2022-08-19T10:02:10.821Z,2.25
2022-08-19T10:05:31.396Z,2.72
2022-08-19T10:08:37.379Z,4.53
2022-08-19T10:11:49.862Z,2.53
2022-08-19T10:14:55.454Z,2.97
2022-08-19T10:17:57.039Z,3.38
2022-08-19T10:21:12.555Z,2.85
2022-08-19T10:24:14.125Z,3.78
2022-08-19T10:27:16.571Z,3.90
2022-08-19T10:30:18.901Z,2.70
2022-08-19T10:33:38.949Z,3.40
2022-08-19T10:36:56.508Z,3.22
2022-08-19T10:40:03.199Z,4.13
2022-08-19T10:43:04.849Z,3.70
2022-08-19T10:46:13.713Z,5.15
2022-08-19T10:49:15.941Z,3.35
2022-08-19T10:52:38.939Z,3.45
2022-08-19T10:55:59.363Z,3.40
2022-08-19T10:59:00.999Z,3.13
2022-08-19T11:02:05.314Z,3.83
2022-08-19T11:05:12.726Z,3.10
2022-08-19T11:08:23.061Z,4.10
2022-08-19T11:11:25.582Z,4.68
2022-08-19T11:14:27.116Z,4.22
2022-08-19T11:17:33.955Z,3.75
2022-08-19T11:20:35.582Z,4.80
2022-08-19T11:23:37.144Z,2.92
2022-08-19T11:26:40.013Z,4.63
2022-08-19T11:29:41.682Z,3.58
2022-08-19T11:32:47.260Z,5.35
2022-08-19T11:35:50.800Z,3.97
2022-08-19T11:38:52.924Z,4.03
2022-08-19T11:41:54.409Z,5.07
2022-08-19T11:44:55.929Z,3.80
2022-08-19T11:47:58.077Z,5.07
2022-08-19T11:51:00.146Z,4.50
2022-08-19T11:54:02.372Z,5.35
2022-08-19T11:57:04.915Z,5.40
2022-08-19T12:00:08.118Z,5.88
2022-08-19T12:06:29.633Z,5.80
2022-08-19T12:09:32.697Z,4.97
2022-08-19T12:12:34.401Z,5.35
2022-08-19T12:15:41.678Z,5.90
2022-08-19T12:18:47.384Z,5.90
2022-08-19T12:21:48.996Z,6.47
2022-08-19T12:24:53.150Z,5.78
2022-08-19T12:27:57.649Z,4.82
2022-08-19T12:30:59.386Z,6.22
2022-08-19T12:34:01.481Z,5.40
2022-08-19T12:37:05.886Z,5.63
2022-08-19T12:40:08.173Z,5.20
2022-08-19T12:43:09.798Z,5.85
2022-08-19T12:46:12.439Z,5.38
2022-08-19T12:49:30.422Z,4.32
2022-08-19T12:52:38.121Z,4.57
2022-08-19T12:55:39.686Z,3.50
2022-08-19T12:58:42.650Z,6.63
2022-08-19T13:01:50.692Z,4.47
2022-08-19T13:04:52.256Z,4.53
2022-08-19T13:07:57.079Z,4.13
2022-08-19T13:10:59.204Z,3.83
2022-08-19T13:14:02.885Z,4.13
2022-08-19T13:17:04.580Z,2.67
2022-08-19T13:20:09.368Z,2.72
2022-08-19T13:23:11.126Z,2.55
2022-08-19T13:26:13.822Z,4.35
2022-08-19T13:29:34.012Z,3.55
2022-08-19T13:32:53.862Z,3.17
2022-08-19T13:36:01.293Z,3.55
2022-08-19T13:39:04.267Z,3.78
2022-08-19T13:42:07.082Z,3.45
2022-08-19T13:45:09.905Z,3.28
2022-08-19T13:48:11.606Z,2.75
2022-08-19T13:51:13.019Z,3.90
2022-08-19T13:54:14.560Z,2.97
2022-08-19T13:57:16.033Z,2.67
2022-08-19T14:00:19.187Z,2.92
2022-08-19T14:03:20.629Z,2.95
2022-08-19T14:06:23.252Z,3.03
2022-08-19T14:09:24.780Z,1.95
2022-08-19T14:12:28.416Z,3.58
2022-08-19T14:15:31.243Z,2.97
2022-08-19T14:18:32.709Z,3.50
2022-08-19T14:21:36.556Z,3.90
2022-08-19T14:24:41.288Z,3.97
2022-08-19T14:27:49.734Z,2.83
2022-08-19T14:30:51.256Z,2.67
2022-08-19T14:33:58.052Z,3.20
2022-08-19T14:36:59.584Z,3.45
2022-08-19T14:40:04.861Z,3.53
2022-08-19T14:43:06.471Z,2.33
2022-08-19T14:46:08.907Z,2.97
2022-08-19T14:49:12.151Z,3.67
2022-08-19T14:52:13.695Z,2.80
2022-08-19T14:55:17.557Z,3.25
2022-08-19T15:01:32.095Z,3.13
2022-08-19T15:04:33.913Z,3.40
2022-08-19T15:07:36.807Z,3.20
2022-08-19T15:10:41.447Z,2.78
2022-08-19T15:13:44.982Z,2.42
2022-08-19T15:16:46.411Z,3.25
2022-08-19T15:19:47.948Z,3.05
2022-08-19T15:22:50.097Z,2.97
2022-08-19T15:25:55.789Z,3.90
2022-08-19T15:28:58.446Z,3.50
2022-08-19T15:31:59.881Z,3.42
2022-08-19T15:35:04.616Z,4.00
2022-08-19T15:38:06.512Z,3.67
2022-08-19T15:41:37.095Z,3.72
2022-08-19T15:44:39.092Z,2.60
2022-08-19T15:47:41.340Z,2.97
2022-08-19T15:50:44.140Z,2.83
2022-08-19T15:53:45.971Z,2.50
2022-08-19T15:57:07.613Z,2.50
2022-08-19T16:00:28.191Z,3.13
2022-08-19T16:03:48.093Z,2.47
2022-08-19T16:06:57.053Z,2.75
2022-08-19T16:09:58.507Z,2.63
2022-08-19T16:13:20.233Z,3.28
2022-08-19T16:16:24.034Z,2.63
2022-08-19T16:19:33.300Z,2.72
2022-08-19T16:22:34.999Z,4.10
2022-08-19T16:25:36.515Z,2.28
2022-08-19T16:28:38.331Z,3.28
2022-08-19T16:31:42.131Z,2.90
2022-08-19T16:34:43.655Z,2.88
2022-08-19T16:37:45.597Z,2.85
2022-08-19T16:40:53.870Z,2.80
2022-08-19T16:43:55.761Z,2.55
2022-08-19T16:46:59.640Z,3.10
2022-08-19T16:50:01.625Z,3.10
2022-08-19T16:53:03.751Z,2.80
2022-08-19T16:56:05.500Z,3.55
2022-08-19T16:59:06.973Z,3.22
2022-08-19T17:02:08.492Z,4.45
2022-08-19T17:05:11.945Z,3.65
2022-08-19T17:08:16.826Z,3.33
2022-08-19T17:11:19.811Z,3.13
2022-08-19T17:14:21.940Z,3.42
2022-08-19T17:17:28.321Z,5.45
2022-08-19T17:20:31.637Z,2.85
2022-08-19T17:23:43.168Z,3.08
2022-08-19T17:26:45.756Z,2.65
2022-08-19T17:29:47.348Z,4.80
2022-08-19T17:32:49.022Z,4.35
2022-08-19T17:35:50.630Z,3.63
2022-08-19T17:38:55.178Z,3.03
2022-08-19T17:41:57.030Z,3.35
2022-08-19T17:45:05.287Z,5.63
2022-08-19T17:48:07.277Z,3.20
2022-08-19T17:51:24.515Z,3.70
2022-08-19T17:54:31.845Z,3.03
2022-08-19T17:57:35.488Z,3.10
2022-08-19T18:00:37.044Z,4.05
2022-08-19T18:03:54.180Z,3.38
2022-08-19T18:06:56.639Z,4.15
2022-08-19T18:09:58.748Z,3.42
2022-08-19T18:13:17.096Z,4.15
2022-08-19T18:16:20.779Z,3.80
2022-08-19T18:19:24.135Z,3.20
2022-08-19T18:22:36.263Z,3.72
2022-08-19T18:25:41.953Z,5.13
2022-08-19T18:28:49.936Z,4.07
2022-08-19T18:31:51.633Z,3.88
2022-08-19T18:34:55.290Z,3.53
2022-08-19T18:37:59.699Z,3.38
2022-08-19T18:41:20.892Z,4.18
2022-08-19T18:44:41.083Z,4.57
2022-08-19T18:48:27.240Z,3.67
2022-08-19T18:51:30.195Z,3.40
2022-08-19T18:54:31.830Z,3.80
2022-08-19T18:57:33.527Z,3.55
2022-08-19T19:00:37.445Z,3.20
2022-08-19T19:06:51.845Z,4.80
2022-08-19T19:09:53.338Z,3.45
2022-08-19T19:12:54.863Z,4.15
2022-08-19T19:15:56.891Z,3.20
2022-08-19T19:18:59.070Z,3.83
2022-08-19T19:22:03.161Z,3.75
2022-08-19T19:25:05.205Z,3.25
2022-08-19T19:28:09.932Z,3.47
2022-08-19T19:31:20.121Z,3.03
2022-08-19T19:34:29.814Z,4.70
2022-08-19T19:40:33.036Z,3.30
2022-08-19T19:43:40.938Z,4.05
2022-08-19T19:46:43.384Z,2.80
2022-08-19T19:50:10.774Z,3.97
2022-08-19T19:53:07.411Z,3.53
2022-08-19T19:56:10.104Z,3.40
2022-08-19T19:59:12.022Z,3.67
2022-08-19T20:02:16.669Z,3.28
2022-08-19T20:05:23.370Z,4.15
2022-08-19T20:08:47.627Z,3.47
2022-08-19T20:11:54.884Z,4.03
2022-08-19T20:14:56.333Z,3.80
2022-08-19T20:17:59.364Z,3.65
2022-08-19T20:21:00.837Z,2.88
2022-08-19T20:24:09.019Z,3.40
2022-08-19T20:27:11.442Z,3.28
2022-08-19T20:30:19.491Z,5.43
2022-08-19T20:33:21.293Z,3.63
2022-08-19T20:36:24.501Z,3.75
2022-08-19T20:39:26.034Z,3.92
2022-08-19T20:42:28.328Z,4.03
2022-08-19T20:45:33.075Z,3.92
2022-08-19T20:48:38.286Z,3.47
2022-08-19T20:51:40.098Z,4.05
2022-08-19T20:54:41.647Z,3.88
2022-08-19T20:57:43.115Z,4.45
2022-08-19T21:00:45.999Z,3.97
2022-08-19T21:03:48.396Z,4.38
2022-08-19T21:06:50.676Z,3.55
2022-08-19T21:09:52.475Z,4.15
2022-08-19T21:12:54.816Z,5.97
2022-08-19T21:15:56.318Z,4.07
2022-08-19T21:18:57.925Z,4.82
2022-08-19T21:22:00.724Z,5.72
2022-08-19T21:25:03.251Z,4.55
2022-08-19T21:28:05.768Z,5.03
2022-08-19T21:31:10.279Z,4.07
2022-08-19T21:34:11.924Z,3.88
2022-08-19T21:37:17.587Z,3.83
2022-08-19T21:40:27.246Z,3.50
2022-08-19T21:43:28.741Z,3.90
2022-08-19T21:46:30.296Z,4.22
2022-08-19T21:49:31.958Z,5.68
2022-08-19T21:52:37.438Z,3.30
2022-08-19T21:55:39.329Z,4.50
2022-08-19T21:58:41.362Z,5.38
2022-08-19T22:01:48.231Z,4.22
2022-08-19T22:04:52.991Z,4.07
2022-08-19T22:07:59.772Z,6.45
2022-08-19T22:11:03.528Z,3.72
2022-08-19T22:14:05.598Z,3.53
2022-08-19T22:17:09.345Z,4.00
2022-08-19T22:20:15.683Z,6.70
2022-08-19T22:23:17.181Z,5.00
2022-08-19T22:26:18.773Z,3.08
2022-08-19T22:29:20.265Z,3.70
2022-08-19T22:32:35.946Z,2.83
2022-08-19T22:35:39.981Z,3.97
2022-08-19T22:41:43.221Z,3.28
2022-08-19T22:44:44.663Z,3.58
2022-08-19T22:47:46.172Z,4.88
2022-08-19T22:51:07.750Z,3.05
2022-08-19T22:54:09.539Z,4.78
2022-08-19T22:57:11.348Z,5.00
2022-08-19T23:00:13.647Z,3.40
2022-08-19T23:03:15.181Z,3.83
2022-08-19T23:06:17.382Z,4.13
2022-08-19T23:09:19.703Z,4.25
2022-08-19T23:12:34.406Z,4.93
2022-08-19T23:15:36.259Z,3.38
2022-08-19T23:18:37.863Z,4.28
2022-08-19T23:21:41.270Z,4.03
2022-08-19T23:24:42.674Z,4.13
2022-08-19T23:28:04.392Z,3.47
2022-08-19T23:31:07.218Z,4.65
2022-08-19T23:34:08.696Z,4.07
2022-08-19T23:37:10.156Z,5.53
2022-08-19T23:40:11.723Z,4.93
2022-08-19T23:43:20.388Z,4.25
2022-08-19T23:46:28.119Z,3.72
2022-08-19T23:49:31.254Z,6.82
2022-08-19T23:52:35.244Z,3.85
2022-08-19T23:55:41.033Z,4.63
2022-08-19T23:58:42.482Z,4.45
